»·PEaware :: QXE2349 KGEG-KSEA

QXE2349 :: KGEG-KSEA

FLIGHT INFORMATION

Flight Status: Arrived
Operator:
Horizon Air
More flights by this operator :: More flights under this callsign
Pilot: Andre N. (13929)
Aircraft: DEHAVILLAND DASH 8 400
(DH8D)
More flights by this aircraft type
Origin: KGEG Spokane Intl
United States
Destination: KSEA Seattle-Tacoma Intl
United States
More flights between these airports :: More routes between these airports
Route: TEMPL GLASR1
File this flight plan on PilotEdge
Remarks:
Altitude:
(Current/Filed)
20,000ft
Speed:
(Current/Filed)
300kts
Departed: 11-Feb-18 05:35 PM
Arrived: 11-Feb-18 06:33 PM
Distance/Time
Traveled:
194nm/0:57
Distance/Time
To Go:
Arrived

Flight Plot

Page will automatically refresh every two minutes.

Flight plan parsing failed; only flown route is shown


Map Options




Map Legend


Flown Route
Filed Route
Departure Airport
Arrival Airport
Navaid (VOR, NDB)
Fix

Horizontal Profiles

Position Reports

Time Latitude Longitude Heading Altitude Ground
Speed
11-Feb-18 17:14 47.623348 -117.540367 0 2391ft 0kts
11-Feb-18 17:15 47.623348 -117.540367 0 2391ft 0kts
11-Feb-18 17:16 47.623348 -117.540367 0 2391ft 0kts
11-Feb-18 17:17 47.623348 -117.540367 0 2391ft 0kts
11-Feb-18 17:18 47.623348 -117.540367 0 2391ft 0kts
11-Feb-18 17:19 47.623348 -117.540367 0 2391ft 0kts
11-Feb-18 17:20 47.623348 -117.540367 0 2391ft 0kts
11-Feb-18 17:21 47.623348 -117.540367 0 2391ft 0kts
11-Feb-18 17:22 47.623348 -117.540367 0 2391ft 0kts
11-Feb-18 17:23 47.623348 -117.540367 0 2391ft 0kts
11-Feb-18 17:24 47.623348 -117.540367 0 2391ft 0kts
11-Feb-18 17:25 47.623348 -117.540367 0 2391ft 0kts
11-Feb-18 17:26 47.623348 -117.540367 0 2391ft 0kts
11-Feb-18 17:27 47.623348 -117.540367 0 2391ft 0kts
11-Feb-18 17:28 47.623348 -117.540367 0 2391ft 0kts
11-Feb-18 17:29 47.623299 -117.540390 31 2391ft 2kts
11-Feb-18 17:30 47.622753 -117.540604 49 2391ft 2kts
11-Feb-18 17:31 47.622659 -117.540994 91 2391ft 0kts
11-Feb-18 17:32 47.622659 -117.540993 91 2391ft 0kts
11-Feb-18 17:33 47.622659 -117.540993 91 2391ft 0kts
11-Feb-18 17:34 47.622659 -117.540993 91 2391ft 0kts
11-Feb-18 17:35 47.622655 -117.540675 90 2391ft 7kts
11-Feb-18 17:36 47.621628 -117.536979 182 2391ft 11kts
11-Feb-18 17:37 47.618697 -117.541162 225 2391ft 17kts
11-Feb-18 17:38 47.615231 -117.546369 224 2391ft 18kts
11-Feb-18 17:39 47.611824 -117.551507 222 2391ft 9kts
11-Feb-18 17:40 47.611076 -117.551299 135 2391ft 0kts
11-Feb-18 17:41 47.611076 -117.551299 135 2391ft 0kts
11-Feb-18 17:42 47.614039 -117.544134 44 2391ft 114kts
11-Feb-18 17:43 47.645509 -117.503220 39 5242ft 152kts
11-Feb-18 17:44 47.677998 -117.463487 21 8058ft 159kts
11-Feb-18 17:45 47.694295 -117.510715 263 10888ft 177kts
11-Feb-18 17:46 47.691403 -117.597358 272 12027ft 272kts
11-Feb-18 17:47 47.693932 -117.722820 273 13171ft 315kts
11-Feb-18 17:48 47.697381 -117.851688 274 15567ft 308kts
11-Feb-18 17:49 47.700789 -117.980070 274 17478ft 317kts
11-Feb-18 17:50 47.704144 -118.112449 274 19134ft 324kts
11-Feb-18 17:51 47.707484 -118.249760 274 19907ft 348kts
11-Feb-18 17:52 47.710813 -118.395599 274 19911ft 356kts
11-Feb-18 17:53 47.713987 -118.542665 274 19940ft 355kts
11-Feb-18 17:54 47.716938 -118.687708 273 19953ft 351kts
11-Feb-18 17:55 47.719666 -118.830593 273 19961ft 349kts
11-Feb-18 17:56 47.722223 -118.974870 274 19961ft 349kts
11-Feb-18 17:57 47.724632 -119.118641 275 19962ft 349kts
11-Feb-18 17:58 47.726850 -119.262650 274 19961ft 349kts
11-Feb-18 17:59 47.728875 -119.406301 274 19962ft 349kts
11-Feb-18 18:00 47.735000 -119.547674 280 19960ft 347kts
11-Feb-18 18:01 47.745845 -119.684817 279 19962ft 347kts
11-Feb-18 18:02 47.756556 -119.822068 279 19964ft 347kts
11-Feb-18 18:03 47.767477 -119.964306 279 19975ft 347kts
11-Feb-18 18:04 47.778253 -120.107007 279 19980ft 347kts
11-Feb-18 18:05 47.785116 -120.249977 276 19979ft 348kts
11-Feb-18 18:06 47.797966 -120.391247 282 19989ft 345kts
11-Feb-18 18:07 47.809326 -120.533683 280 19979ft 347kts
11-Feb-18 18:08 47.819219 -120.673381 279 18864ft 342kts
11-Feb-18 18:09 47.828053 -120.800869 278 17478ft 340kts
11-Feb-18 18:10 47.836543 -120.925420 278 16117ft 338kts
11-Feb-18 18:11 47.845573 -121.060836 279 15945ft 320kts
11-Feb-18 18:12 47.854139 -121.190914 279 15987ft 314kts
11-Feb-18 18:13 47.862609 -121.321088 279 15198ft 324kts
11-Feb-18 18:14 47.871028 -121.453898 278 13274ft 317kts
11-Feb-18 18:15 47.878978 -121.581591 278 11172ft 307kts
11-Feb-18 18:16 47.876965 -121.699020 238 9999ft 264kts
11-Feb-18 18:17 47.832986 -121.774018 225 9986ft 231kts
11-Feb-18 18:17 47.791955 -121.831470 223 10002ft 254kts
11-Feb-18 18:19 47.730604 -121.913891 222 9994ft 272kts
11-Feb-18 18:20 47.675121 -121.989261 223 9973ft 255kts
11-Feb-18 18:20 47.636553 -122.041113 223 9341ft 240kts
11-Feb-18 18:21 47.586712 -122.107914 223 7630ft 242kts
11-Feb-18 18:22 47.530980 -122.135981 178 6970ft 201kts
11-Feb-18 18:23 47.485587 -122.133903 178 6996ft 197kts
11-Feb-18 18:25 47.417823 -122.130810 178 5451ft 221kts
11-Feb-18 18:25 47.367601 -122.128514 178 4976ft 204kts
11-Feb-18 18:26 47.310643 -122.125985 178 4992ft 207kts
11-Feb-18 18:27 47.253390 -122.123708 178 4991ft 205kts
11-Feb-18 18:28 47.196728 -122.121598 178 4991ft 203kts
11-Feb-18 18:30 47.140589 -122.120267 192 4973ft 202kts
11-Feb-18 18:31 47.139793 -122.184609 305 5004ft 197kts
11-Feb-18 18:32 47.171992 -122.255028 305 4415ft 217kts
11-Feb-18 18:33 47.207104 -122.325196 339 3052ft 211kts
11-Feb-18 18:34 47.253566 -122.333760 356 2977ft 153kts
11-Feb-18 18:35 47.291156 -122.328438 13 2954ft 122kts
11-Feb-18 18:36 47.322659 -122.315402 12 3002ft 118kts
11-Feb-18 18:37 47.351719 -122.310901 5 3406ft 106kts
11-Feb-18 18:38 47.383547 -122.307973 358 2046ft 125kts
11-Feb-18 18:39 47.416348 -122.307973 356 812ft 109kts
11-Feb-18 18:40 47.440889 -122.307983 1 440ft 40kts
11-Feb-18 18:41 47.443685 -122.307247 79 440ft 0kts
11-Feb-18 18:42 47.443650 -122.305738 124 440ft 6kts
11-Feb-18 18:43 47.443720 -122.304342 2 440ft 0kts
11-Feb-18 18:44 47.443719 -122.304342 2 440ft 0kts
11-Feb-18 18:45 47.443719 -122.304342 2 440ft 0kts

Navigation Log

Ident Type
Flight plan parsing failed, navigation log unavailable